메인 페이지
METAR-TAF:

METAR-TAF

공항 :

바트만, 터키

위도: 37-52N, 경도: 041-10E, 고도: 540m

현재 날씨관측

예보는 50분 전, 13:50시(UTC)에 발표되었습니다.
4kt
온도 9°C
습도 100%
기압 1018 hPa
시정: 8000m
고도 2000ft 상공 구름 조금
고도 3000ft 상공 구름 많음
고도 8000ft 상공 흐림

METAR: LTCJ 141350Z 01004KT 8000 FEW020 BKN030 OVC080 09/09 Q1018 RMK RWY20 35005KT 310V020

시각: 17:40 (14:40 UTC)

예보

예보는 4 시간 0분 전, 10:40시(UTC)에 발표되었습니다.
예보 대상 시간: 14일 12시부터 15일 12시까지 (UTC)
북북동8kt
시정: 6000m
고도 1500ft 상공 구름 조금
고도 3500ft 상공 구름 많음
고도 9000ft 상공 흐림
일시적
14일 12시부터 14일 16시까지 (UTC)
시정: 2500m
고도 1000ft 상공 구름 조금
고도 3000ft 상공 구름 많음
고도 8000ft 상공 흐림
약한비, 박무
일시적
14일 16시부터 14일 20시까지 (UTC)
시정: 2500m
고도 1000ft 상공 구름 조금
고도 3000ft 상공 구름 많음
고도 8000ft 상공 흐림
약한비, 박무
일시적
15일 00시부터 15일 04시까지 (UTC)
시정: 2500m
고도 1000ft 상공 구름 조금
고도 3000ft 상공 구름 많음
고도 8000ft 상공 흐림
약한비, 박무

TAF: LTCJ 141040Z 1412/1512 03008KT 6000 FEW015 BKN035 OVC090 TEMPO 1412/1416 2500 -RA BR FEW010 BKN030 OVC080 TEMPO 1416/1420 2500 -RA BR FEW010 BKN030 OVC080 TEMPO 1500/1504 2500 -RA BR FEW010 BKN030 OVC080

4,000개 이상의 공항 관측 자료 및 예보 (METAR 및 TAF 보고).

지도상에서 검색 가능한 기상관측소가 노란 점과 빨간 점으로 표시되어 있습니다.

기상관측소 명을 보려면 표시 위로 마우스를 이동하세요.

날씨 관측과 예보를 보려면 클릭하세요.

지도 변경 : 확대하려면 엑스 표시가 있는 녹색 버튼, 축소하려면 빼기 표시가 있는 녹색 버튼, 다음 페이지의 지도를 보려면 녹색 화살표를 클릭하세요.


METAR-TAF: